Time;durP1;ratioP1;P1;durP2;ratioP2;P2;SDS_P1;SDS_P2;PMS_P1;PMS_P2;Temp;Humidity;BMP_temperature;BMP_pressure;BME280_temperature;BME280_humidity;BME280_pressure;Samples;Min_cycle;Max_cycle;Signal;HPM_P1;HPM_P2
2021/12/24 00:00:14;;;;;;;;;;;;;;;7.47;48.05;102230.84;143733;984;46937;-74
2021/12/24 00:02:40;;;;;;;;;;;;;;;7.47;48.04;102221.97;143734;985;46012;-75
2021/12/24 00:05:07;;;;;;;;;;;;;;;7.48;48.02;102227.19;143732;982;46935;-73
2021/12/24 00:07:33;;;;;;;;;;;;;;;7.44;48.23;102215.94;143733;982;47002;-75
2021/12/24 00:09:59;;;;;;;;;;;;;;;7.41;47.31;102218.03;143734;983;47008;-74
2021/12/24 00:12:28;;;;;;;;;;;;;;;7.44;47.13;102225.78;143733;985;47000;-74
2021/12/24 00:15:00;;;;;;;;;;;;;;;7.47;46.74;102221.97;143733;981;46010;-75
2021/12/24 00:17:30;;;;;;;;;;;;;;;7.42;46.77;102217.88;143731;981;47002;-74
2021/12/24 00:20:29;;;;;;;;;;;;;;;7.44;47.00;102215.94;143734;986;46008;-74
2021/12/24 00:36:40;;;;;;;;;;;;;;;7.36;46.54;102191.75;143730;982;47008;-74
2021/12/24 00:39:06;;;;;;;;;;;;;;;7.32;46.42;102187.66;143734;982;47002;-74
2021/12/24 00:41:32;;;;;;;;;;;;;;;7.33;46.96;102175.13;143734;984;46008;-74
2021/12/24 00:43:58;;;;;;;;;;;;;;;7.32;47.68;102186.81;143731;983;47000;-74
2021/12/24 00:46:24;;;;;;;;;;;;;;;7.28;47.80;102189.78;143732;982;47011;-74
2021/12/24 00:48:51;;;;;;;;;;;;;;;7.27;47.64;102176.53;143731;981;47002;-76
2021/12/24 00:51:24;;;;;;;;;;;;;;;7.30;47.98;102178.94;143734;971;46008;-74
2021/12/24 00:56:24;;;;;;;;;;;;;;;7.27;48.17;102174.72;143734;980;47002;-74
2021/12/24 00:58:50;;;;;;;;;;;;;;;7.22;48.59;102184.16;143732;978;47002;-74
2021/12/24 01:01:16;;;;;;;;;;;;;;;7.22;48.18;102181.47;143735;986;46008;-74
2021/12/24 01:03:42;;;;;;;;;;;;;;;7.22;48.40;102173.47;143735;982;47004;-74
2021/12/24 01:06:08;;;;;;;;;;;;;;;7.22;48.27;102171.63;143731;986;47010;-74
2021/12/24 01:08:34;;;;;;;;;;;;;;;7.25;48.39;102175.81;143732;978;48011;-75
2021/12/24 01:11:02;;;;;;;;;;;;;;;7.24;48.95;102180.34;143733;985;46008;-74
2021/12/24 01:13:28;;;;;;;;;;;;;;;7.23;48.17;102177.81;143733;982;47000;-73
2021/12/24 01:16:00;;;;;;;;;;;;;;;7.22;48.26;102178.81;143734;985;46011;-73
2021/12/24 01:18:57;;;;;;;;;;;;;;;7.22;47.45;102179.63;143732;977;47010;-73
2021/12/24 01:24:13;;;;;;;;;;;;;;;7.20;48.64;102159.41;143735;984;46009;-74
2021/12/24 01:27:02;;;;;;;;;;;;;;;7.18;48.78;102158.69;143732;982;47010;-74
2021/12/24 01:29:50;;;;;;;;;;;;;;;7.10;48.64;102154.03;143733;982;47003;-74
2021/12/24 01:38:11;;;;;;;;;;;;;;;7.10;48.69;102144.19;143734;985;46011;-74
2021/12/24 01:43:41;;;;;;;;;;;;;;;7.07;48.57;102133.78;143730;984;47004;-75
2021/12/24 01:46:07;;;;;;;;;;;;;;;7.10;48.32;102138.00;143735;986;47000;-75
2021/12/24 01:48:33;;;;;;;;;;;;;;;7.11;47.81;102129.03;143734;979;46010;-73
2021/12/24 01:50:59;;;;;;;;;;;;;;;7.15;47.69;102135.75;143733;982;47002;-74
2021/12/24 01:53:25;;;;;;;;;;;;;;;7.15;47.51;102133.06;143731;984;47004;-74
2021/12/24 01:55:52;;;;;;;;;;;;;;;7.09;47.88;102133.66;143734;986;47000;-74
2021/12/24 01:58:22;;;;;;;;;;;;;;;7.09;48.34;102136.31;143733;982;46010;-74
2021/12/24 02:00:50;;;;;;;;;;;;;;;7.05;48.53;102133.09;143732;982;47002;-75
2021/12/24 02:03:16;;;;;;;;;;;;;;;7.04;47.95;102120.72;143735;984;46008;-73
2021/12/24 02:05:42;;;;;;;;;;;;;;;7.04;48.06;102119.88;143735;986;47000;-74
2021/12/24 02:08:09;;;;;;;;;;;;;;;7.02;47.58;102121.81;143732;982;47010;-74
2021/12/24 02:10:35;;;;;;;;;;;;;;;7.01;46.73;102115.66;143733;981;47002;-75
2021/12/24 02:13:03;;;;;;;;;;;;;;;7.01;46.65;102112.13;143734;984;46008;-74
2021/12/24 02:29:31;;;;;;;;;;;;;;;7.05;45.96;102081.47;143732;986;47010;-74
2021/12/24 02:31:57;;;;;;;;;;;;;;;7.09;46.15;102090.91;143733;977;47002;-74
2021/12/24 02:34:23;;;;;;;;;;;;;;;7.08;46.18;102087.37;143733;986;46934;-74
2021/12/24 02:36:49;;;;;;;;;;;;;;;7.10;46.10;102081.91;143733;969;47000;-74
2021/12/24 02:39:16;;;;;;;;;;;;;;;7.07;45.83;102084.84;143734;985;46010;-74
2021/12/24 02:41:42;;;;;;;;;;;;;;;7.04;46.31;102082.47;143730;978;47002;-74
2021/12/24 02:44:08;;;;;;;;;;;;;;;7.02;46.89;102082.62;143736;986;46008;-74
2021/12/24 02:53:54;;;;;;;;;;;;;;;6.95;47.44;102068.13;143735;982;46010;-74
2021/12/24 02:54:47;;;;;;;;;;;;;;;6.91;48.08;102080.06;143735;983;46008;-74
2021/12/24 02:57:15;;;;;;;;;;;;;;;6.91;49.01;102083.59;143733;985;47000;-74
2021/12/24 02:59:57;;;;;;;;;;;;;;;6.90;49.33;102071.22;143735;970;46011;-73
2021/12/24 03:02:23;;;;;;;;;;;;;;;6.90;48.96;102070.37;143730;981;47002;-74
2021/12/24 03:04:49;;;;;;;;;;;;;;;6.94;48.01;102069.97;143733;984;46008;-74
2021/12/24 03:07:15;;;;;;;;;;;;;;;6.96;47.70;102070.69;143735;986;47000;-74
2021/12/24 03:09:41;;;;;;;;;;;;;;;6.94;47.98;102069.97;143734;981;46010;-74
2021/12/24 03:12:07;;;;;;;;;;;;;;;6.88;48.06;102057.16;143733;982;47002;-72
2021/12/24 03:14:33;;;;;;;;;;;;;;;6.80;48.01;102067.69;143734;984;46937;-73
2021/12/24 03:17:01;;;;;;;;;;;;;;;6.78;48.66;102061.69;143737;985;47000;-74
2021/12/24 03:19:31;;;;;;;;;;;;;;;6.71;48.72;102068.56;143732;982;46935;-74
2021/12/24 03:22:13;;;;;;;;;;;;;;;6.72;49.18;102071.06;143734;982;47002;-74
2021/12/24 03:24:39;;;;;;;;;;;;;;;6.73;49.01;102064.75;143734;984;46008;-75
2021/12/24 03:27:06;;;;;;;;;;;;;;;6.71;49.57;102071.22;143735;986;47000;-75
2021/12/24 03:29:32;;;;;;;;;;;;;;;6.68;49.00;102065.16;143732;982;47010;-74
2021/12/24 03:31:59;;;;;;;;;;;;;;;6.71;49.36;102071.22;143733;981;47002;-74
2021/12/24 03:34:24;;;;;;;;;;;;;;;6.72;49.52;102067.56;143735;984;46008;-73
2021/12/24 03:36:51;;;;;;;;;;;;;;;6.77;49.54;102079.50;143733;985;47000;-74
2021/12/24 03:39:17;;;;;;;;;;;;;;;6.75;49.06;102081.47;143732;981;47011;-74
2021/12/24 03:41:43;;;;;;;;;;;;;;;6.71;49.07;102084.56;143731;982;47002;-74
2021/12/24 03:44:12;;;;;;;;;;;;;;;6.68;49.03;102085.69;143735;984;46009;-74
2021/12/24 03:46:56;;;;;;;;;;;;;;;6.64;49.07;102084.28;143736;985;47000;-74
2021/12/24 03:55:17;;;;;;;;;;;;;;;6.61;49.01;102071.22;143732;984;47004;-74
2021/12/24 03:57:44;;;;;;;;;;;;;;;6.59;48.96;102070.50;143737;986;46000;-74
2021/12/24 04:00:27;;;;;;;;;;;;;;;6.51;49.32;102055.19;143733;982;47010;-74
2021/12/24 04:02:53;;;;;;;;;;;;;;;6.52;49.38;102062.22;143733;982;47002;-74
2021/12/24 04:05:19;;;;;;;;;;;;;;;6.50;49.19;102057.03;143733;984;46938;-73
2021/12/24 04:07:45;;;;;;;;;;;;;;;6.50;49.05;102064.16;143735;985;47000;-74
2021/12/24 04:13:00;;;;;;;;;;;;;;;6.47;48.96;102067.09;143730;978;47002;-74
2021/12/24 04:15:26;;;;;;;;;;;;;;;6.47;48.98;102061.75;143735;985;46008;-74
2021/12/24 04:17:52;;;;;;;;;;;;;;;6.44;49.53;102070.91;143734;982;47000;-74
2021/12/24 04:25:46;;;;;;;;;;;;;;;6.43;48.71;102071.06;143734;986;46008;-74
2021/12/24 04:28:14;;;;;;;;;;;;;;;6.44;48.56;102076.25;143733;982;47000;-74
2021/12/24 04:30:46;;;;;;;;;;;;;;;6.44;48.92;102080.75;143734;985;46011;-75
2021/12/24 04:33:26;;;;;;;;;;;;;;;6.41;49.30;102075.69;143732;978;47002;-73
2021/12/24 04:36:17;;;;;;;;;;;;;;;6.43;49.55;102071.88;143732;986;46009;-74
2021/12/24 04:39:14;;;;;;;;;;;;;;;6.42;49.14;102075.53;143735;981;47000;-73
2021/12/24 05:04:02;;;;;;;;;;;;;;;6.45;49.38;102071.72;143731;986;47008;-74
2021/12/24 05:06:34;;;;;;;;;;;;;;;6.45;49.00;102079.75;143732;978;47002;-74
2021/12/24 05:09:07;;;;;;;;;;;;;;;6.46;48.71;102073.41;143733;985;46008;-74
2021/12/24 05:11:33;;;;;;;;;;;;;;;6.42;48.78;102070.19;143733;982;47000;-75
2021/12/24 05:13:59;;;;;;;;;;;;;;;6.40;49.09;102068.66;143734;986;46010;-74
2021/12/24 05:16:43;;;;;;;;;;;;;;;6.37;48.99;102067.94;143731;977;47002;-74
2021/12/24 05:21:54;;;;;;;;;;;;;;;6.38;48.82;102071.44;143736;985;46009;-73
2021/12/24 05:24:22;;;;;;;;;;;;;;;6.37;49.03;102067.09;143732;981;47010;-73
2021/12/24 05:26:50;;;;;;;;;;;;;;;6.39;49.11;102074.97;143733;982;47002;-73
2021/12/24 05:29:16;;;;;;;;;;;;;;;6.36;49.02;102063.59;143733;984;46009;-73
2021/12/24 05:31:42;;;;;;;;;;;;;;;6.33;49.00;102063.84;143736;985;47000;-74
2021/12/24 05:34:08;;;;;;;;;;;;;;;6.29;49.10;102065.09;143735;982;46010;-74
2021/12/24 05:36:34;;;;;;;;;;;;;;;6.26;49.86;102065.41;143735;982;47003;-73
2021/12/24 05:39:00;;;;;;;;;;;;;;;6.28;49.92;102058.06;143733;984;46008;-74
2021/12/24 05:41:26;;;;;;;;;;;;;;;6.31;49.58;102052.47;143732;985;47008;-73
2021/12/24 05:43:52;;;;;;;;;;;;;;;6.33;49.61;102055.03;143732;982;46011;-73
2021/12/24 05:46:18;;;;;;;;;;;;;;;6.29;49.60;102062.44;143732;981;47002;-74
2021/12/24 05:48:44;;;;;;;;;;;;;;;6.24;50.12;102050.50;143734;984;46008;-74
2021/12/24 05:51:10;;;;;;;;;;;;;;;6.22;50.17;102053.31;143737;986;47000;-74
2021/12/24 05:53:37;;;;;;;;;;;;;;;6.26;49.72;102052.06;143732;981;46010;-74
2021/12/24 05:56:03;;;;;;;;;;;;;;;6.24;49.98;102053.16;143731;982;47002;-74
2021/12/24 05:58:30;;;;;;;;;;;;;;;6.20;49.81;102056.09;143734;984;46009;-73
2021/12/24 06:00:56;;;;;;;;;;;;;;;6.22;49.71;102054.13;143733;985;47000;-74
2021/12/24 06:03:22;;;;;;;;;;;;;;;6.26;50.27;102052.06;143733;982;46010;-74
2021/12/24 06:05:48;;;;;;;;;;;;;;;6.28;49.76;102055.41;143733;982;47002;-74
2021/12/24 06:08:14;;;;;;;;;;;;;;;6.29;49.99;102056.28;143734;983;46008;-74
2021/12/24 06:10:41;;;;;;;;;;;;;;;6.32;49.68;102048.81;143735;984;47004;-74
2021/12/24 06:13:07;;;;;;;;;;;;;;;6.34;49.86;102049.53;143733;979;47013;-74
2021/12/24 06:15:41;;;;;;;;;;;;;;;6.37;49.98;102051.06;143733;981;47004;-74
2021/12/24 06:18:12;;;;;;;;;;;;;;;6.45;49.06;102053.91;143734;978;46010;-74
2021/12/24 06:20:39;;;;;;;;;;;;;;;6.46;49.16;102052.06;143732;986;47002;-74
2021/12/24 06:23:07;;;;;;;;;;;;;;;6.50;49.30;102058.81;143733;979;46012;-74
2021/12/24 06:25:33;;;;;;;;;;;;;;;6.52;49.25;102070.22;143733;976;47004;-74
2021/12/24 06:27:59;;;;;;;;;;;;;;;6.53;49.52;102063.91;143735;984;46011;-74
2021/12/24 06:30:29;;;;;;;;;;;;;;;6.54;49.85;102081.59;143736;984;47002;-74
2021/12/24 06:32:58;;;;;;;;;;;;;;;6.53;49.58;102069.22;143733;979;46012;-74
2021/12/24 06:35:24;;;;;;;;;;;;;;;6.55;49.54;102071.75;143733;982;47004;-74
2021/12/24 06:37:54;;;;;;;;;;;;;;;6.59;49.20;102075.84;143733;983;46012;-74
2021/12/24 06:40:20;;;;;;;;;;;;;;;6.60;49.15;102070.37;143735;986;47000;-74
2021/12/24 06:42:46;;;;;;;;;;;;;;;6.67;49.21;102082.16;143735;982;46011;-74
2021/12/24 06:45:11;;;;;;;;;;;;;;;6.73;48.84;102074.59;143732;981;47002;-75
2021/12/24 06:47:38;;;;;;;;;;;;;;;6.80;48.71;102071.22;143733;984;46008;-74
2021/12/24 06:50:05;;;;;;;;;;;;;;;6.87;48.81;102078.69;143736;986;47000;-73
2021/12/24 06:52:31;;;;;;;;;;;;;;;6.93;47.91;102075.44;143736;981;47002;-74
2021/12/24 06:54:57;;;;;;;;;;;;;;;6.96;47.95;102070.69;143732;982;47002;-75
2021/12/24 06:57:25;;;;;;;;;;;;;;;7.02;47.69;102071.94;143733;984;47008;-75
2021/12/24 06:59:51;;;;;;;;;;;;;;;7.10;47.33;102074.72;143734;985;47000;-75
2021/12/24 07:02:17;;;;;;;;;;;;;;;7.19;47.21;102072.19;143732;982;48010;-75
2021/12/24 07:04:42;;;;;;;;;;;;;;;7.26;46.64;102074.16;143733;982;47002;-75
2021/12/24 07:07:08;;;;;;;;;;;;;;;7.35;46.82;102060.91;143738;983;45936;-74
2021/12/24 07:09:41;;;;;;;;;;;;;;;7.44;46.36;102058.22;143736;986;47000;-74
2021/12/24 07:12:08;;;;;;;;;;;;;;;7.52;46.34;102062.81;143730;982;47010;-75
2021/12/24 07:14:37;;;;;;;;;;;;;;;7.59;45.73;102063.09;143734;981;47002;-75
2021/12/24 07:17:03;;;;;;;;;;;;;;;7.66;45.43;102061.53;143732;984;46008;-74
2021/12/24 07:19:29;;;;;;;;;;;;;;;7.73;45.31;102051.09;143734;986;47000;-76
2021/12/24 07:21:55;;;;;;;;;;;;;;;7.81;45.26;102053.03;143733;973;46027;-74
2021/12/24 07:24:21;;;;;;;;;;;;;;;7.88;45.21;102060.31;143733;982;47002;-76
2021/12/24 07:26:47;;;;;;;;;;;;;;;7.98;44.09;102056.75;143733;984;46008;-77
2021/12/24 07:29:13;;;;;;;;;;;;;;;8.06;44.31;102054.16;143735;986;47000;-76
2021/12/24 07:31:39;;;;;;;;;;;;;;;8.15;43.56;102049.75;143732;982;47010;-77
2021/12/24 07:34:05;;;;;;;;;;;;;;;8.24;43.95;102046.19;143735;974;47002;-76
2021/12/24 07:36:31;;;;;;;;;;;;;;;8.35;44.15;102050.50;143733;983;46009;-77
2021/12/24 07:38:56;;;;;;;;;;;;;;;8.48;43.62;102053.69;143733;985;47000;-78
2021/12/24 07:41:24;;;;;;;;;;;;;;;8.64;43.11;102050.34;143734;977;46023;-77
2021/12/24 07:43:50;;;;;;;;;;;;;;;8.80;42.66;102049.63;143731;981;47002;-77
2021/12/24 07:46:16;;;;;;;;;;;;;;;8.93;42.33;102045.69;143733;984;46008;-80
2021/12/24 07:48:48;;;;;;;;;;;;;;;8.97;41.67;102044.41;143734;986;47000;-77
2021/12/24 07:54:00;;;;;;;;;;;;;;;9.32;40.70;102041.81;143732;978;47002;-79
2021/12/24 07:56:29;;;;;;;;;;;;;;;9.49;40.45;102053.47;143734;986;46008;-77
2021/12/24 07:58:55;;;;;;;;;;;;;;;9.68;39.75;102052.44;143734;981;47000;-76
2021/12/24 08:01:25;;;;;;;;;;;;;;;9.87;39.58;102045.97;143734;977;46023;-79
2021/12/24 08:03:51;;;;;;;;;;;;;;;10.10;39.67;102048.06;143732;978;47002;-79
2021/12/24 08:06:17;;;;;;;;;;;;;;;10.25;39.99;102048.28;143736;985;46008;-75
2021/12/24 08:08:43;;;;;;;;;;;;;;;10.41;39.27;102042.12;143734;982;47000;-75
2021/12/24 08:11:09;;;;;;;;;;;;;;;10.46;38.45;102039.81;143736;985;46010;-79
2021/12/24 08:13:35;;;;;;;;;;;;;;;10.59;38.32;102044.72;143731;978;47002;-75
2021/12/24 08:16:01;;;;;;;;;;;;;;;10.65;38.30;102038.66;143732;985;46931;-78
2021/12/24 08:18:27;;;;;;;;;;;;;;;10.70;39.09;102032.78;143735;982;47000;-78
2021/12/24 08:20:53;;;;;;;;;;;;;;;10.73;39.19;102027.91;143734;979;46934;-80
2021/12/24 08:23:19;;;;;;;;;;;;;;;10.79;39.13;102029.09;143730;978;47002;-77
2021/12/24 08:25:45;;;;;;;;;;;;;;;10.90;38.66;102014.47;143733;985;46008;-76
2021/12/24 08:28:11;;;;;;;;;;;;;;;11.00;38.55;102009.75;143734;982;47000;-79
2021/12/24 08:30:37;;;;;;;;;;;;;;;11.03;38.86;102019.34;143734;985;46010;-74
2021/12/24 08:33:03;;;;;;;;;;;;;;;11.03;38.64;102016.66;143734;978;47001;-66
2021/12/24 08:35:29;;;;;;;;;;;;;;;11.13;38.51;102011.06;143734;985;46009;-67
2021/12/24 08:37:55;;;;;;;;;;;;;;;11.22;37.35;102010.06;143734;981;47000;-67
2021/12/24 08:40:21;;;;;;;;;;;;;;;11.31;36.98;101997.44;143735;971;46010;-66
2021/12/24 08:42:47;;;;;;;;;;;;;;;11.42;37.02;102005.12;143733;978;47002;-68
2021/12/24 08:45:13;;;;;;;;;;;;;;;11.54;37.30;101997.53;143732;982;46018;-68
2021/12/24 08:47:39;;;;;;;;;;;;;;;11.66;37.19;101990.75;143732;982;47000;-68
2021/12/24 08:50:08;;;;;;;;;;;;;;;11.80;36.93;101986.50;143734;986;46011;-69
2021/12/24 08:52:34;;;;;;;;;;;;;;;11.95;36.55;101994.69;143729;977;48002;-68
2021/12/24 08:55:00;;;;;;;;;;;;;;;12.06;35.95;101998.00;143734;986;46008;-69
2021/12/24 08:57:26;;;;;;;;;;;;;;;12.13;36.29;101988.22;143737;982;46000;-69
2021/12/24 08:59:52;;;;;;;;;;;;;;;12.26;36.32;101985.78;143734;986;46010;-67
2021/12/24 09:02:18;;;;;;;;;;;;;;;12.41;35.26;101985.84;143734;978;47002;-67
2021/12/24 09:04:44;;;;;;;;;;;;;;;12.56;35.28;101969.72;143735;985;46009;-69
2021/12/24 09:07:10;;;;;;;;;;;;;;;12.77;35.13;101962.00;143734;981;47000;-66
2021/12/24 09:09:36;;;;;;;;;;;;;;;13.01;34.78;101967.12;143735;986;46010;-67
2021/12/24 09:12:02;;;;;;;;;;;;;;;13.35;33.92;101967.62;143732;978;47003;-66
2021/12/24 09:14:28;;;;;;;;;;;;;;;15.68;30.30;101969.16;143733;985;46931;-66
2021/12/24 09:16:54;;;;;;;;;;;;;;;21.67;22.19;101956.97;143728;982;47000;-67
2021/12/24 09:19:25;;;;;;;;;;;;;;;25.93;17.23;101945.69;143734;978;46011;-68
2021/12/24 09:21:51;;;;;;;;;;;;;;;28.60;14.29;101947.72;143732;977;47002;-69
2021/12/24 09:24:19;;;;;;;;;;;;;;;30.52;13.07;101937.63;143733;985;47008;-69
2021/12/24 09:26:45;;;;;;;;;;;;;;;31.93;11.35;101930.84;143735;982;46008;-67
2021/12/24 09:29:11;;;;;;;;;;;;;;;33.06;10.41;101929.00;143732;985;47011;-67
2021/12/24 09:31:37;;;;;;;;;;;;;;;34.07;9.66;101922.53;143731;978;47002;-68
2021/12/24 09:34:03;;;;;;;;;;;;;;;35.05;9.19;101921.03;143734;985;46009;-79
2021/12/24 09:36:29;;;;;;;;;;;;;;;36.06;8.67;101912.84;143735;981;47000;-68
2021/12/24 09:38:57;;;;;;;;;;;;;;;36.81;8.16;101911.75;143734;985;46010;-69
2021/12/24 09:41:24;;;;;;;;;;;;;;;37.70;7.40;101902.84;143733;978;47002;-67
2021/12/24 09:43:50;;;;;;;;;;;;;;;38.26;7.49;101893.53;143733;985;46008;-70
2021/12/24 09:46:16;;;;;;;;;;;;;;;39.00;7.05;101889.34;143735;982;47000;-69
2021/12/24 09:48:42;;;;;;;;;;;;;;;39.67;6.79;101882.69;143732;985;47010;-68
2021/12/24 09:51:08;;;;;;;;;;;;;;;40.29;5.93;101873.38;143732;977;47002;-68
2021/12/24 09:53:36;;;;;;;;;;;;;;;40.78;5.61;101868.09;143734;986;47008;-67
2021/12/24 09:56:03;;;;;;;;;;;;;;;41.17;5.13;101867.03;143734;982;47000;-69
2021/12/24 09:58:29;;;;;;;;;;;;;;;41.52;5.28;101863.81;143733;985;46934;-70
2021/12/24 10:00:56;;;;;;;;;;;;;;;41.84;5.08;101851.25;143734;978;47002;-69
2021/12/24 10:03:29;;;;;;;;;;;;;;;42.10;4.74;101838.19;143734;986;46932;-77
2021/12/24 10:05:55;;;;;;;;;;;;;;;42.07;4.74;101833.34;143736;981;47012;-77
2021/12/24 10:08:22;;;;;;;;;;;;;;;42.48;4.62;101829.63;143734;985;46010;-70
2021/12/24 10:10:51;;;;;;;;;;;;;;;42.45;4.57;101822.75;143735;978;47002;-70
2021/12/24 10:13:27;;;;;;;;;;;;;;;42.27;5.16;101820.56;143734;985;46008;-71
2021/12/24 10:15:54;;;;;;;;;;;;;;;39.61;5.50;101794.19;143736;982;47000;-66
2021/12/24 10:18:27;;;;;;;;;;;;;;;35.54;8.59;101797.62;143733;976;47010;-67
2021/12/24 10:21:00;;;;;;;;;;;;;;;32.80;10.63;101801.72;143733;977;47002;-67
2021/12/24 10:23:42;;;;;;;;;;;;;;;31.36;11.22;101793.34;143735;986;46008;-70
2021/12/24 10:26:16;;;;;;;;;;;;;;;30.60;11.39;101788.38;143737;982;47000;-68
2021/12/24 10:28:52;;;;;;;;;;;;;;;32.29;10.29;101790.97;143731;985;47010;-69
2021/12/24 10:31:19;;;;;;;;;;;;;;;36.66;7.86;101792.13;143734;978;46010;-70
2021/12/24 10:34:03;;;;;;;;;;;;;;;39.29;5.98;101783.19;143733;984;47009;-71
2021/12/24 10:36:29;;;;;;;;;;;;;;;40.59;6.14;101773.25;143737;971;46029;-71
2021/12/24 10:38:55;;;;;;;;;;;;;;;41.26;5.02;101768.06;143734;980;46020;-69
2021/12/24 10:41:21;;;;;;;;;;;;;;;41.57;5.41;101766.78;143734;978;47002;-71
2021/12/24 10:43:47;;;;;;;;;;;;;;;41.71;4.98;101760.47;143735;985;46008;-70
2021/12/24 10:46:14;;;;;;;;;;;;;;;41.61;5.28;101756.34;143733;982;47000;-70
2021/12/24 10:48:48;;;;;;;;;;;;;;;41.52;4.97;101759.50;143734;979;46010;-70
2021/12/24 10:51:42;;;;;;;;;;;;;;;41.46;5.11;101751.75;143735;977;47002;-70
2021/12/24 10:54:06;;;;;;;;;;;;;;;41.04;5.58;101748.87;143735;984;46008;-68
2021/12/24 10:56:33;;;;;;;;;;;;;;;41.17;4.82;101738.19;143732;985;47000;-67
2021/12/24 10:58:59;;;;;;;;;;;;;;;41.12;4.87;101734.91;143734;973;46027;-68
2021/12/24 11:01:25;;;;;;;;;;;;;;;41.04;4.82;101731.97;143733;982;47002;-67
2021/12/24 11:03:51;;;;;;;;;;;;;;;40.27;4.97;101723.75;143733;983;46009;-66
2021/12/24 11:06:17;;;;;;;;;;;;;;;36.65;7.16;101715.75;143735;985;47000;-67
2021/12/24 11:08:43;;;;;;;;;;;;;;;33.83;9.20;101708.47;143732;982;47010;-65
2021/12/24 11:11:15;;;;;;;;;;;;;;;32.23;10.41;101702.47;143733;982;47002;-67
2021/12/24 11:13:44;;;;;;;;;;;;;;;31.36;11.04;101707.28;143734;983;46935;-69
2021/12/24 11:16:11;;;;;;;;;;;;;;;31.05;11.12;101690.56;143735;985;46008;-68
2021/12/24 11:18:39;;;;;;;;;;;;;;;30.56;11.49;101680.03;143737;978;46002;-68
2021/12/24 11:21:13;;;;;;;;;;;;;;;30.38;12.33;101679.03;143731;981;47002;-68
2021/12/24 11:23:40;;;;;;;;;;;;;;;30.30;12.07;101674.22;143733;984;47000;-68
2021/12/24 11:26:10;;;;;;;;;;;;;;;29.97;11.78;101669.62;143734;985;47000;-67
2021/12/24 11:28:37;;;;;;;;;;;;;;;29.69;12.03;101675.13;143733;981;47002;-73
2021/12/24 11:31:04;;;;;;;;;;;;;;;29.14;12.85;101662.78;143733;982;47002;-74
2021/12/24 11:33:46;;;;;;;;;;;;;;;28.73;12.93;101666.19;143733;984;46009;-75
2021/12/24 11:36:13;;;;;;;;;;;;;;;28.29;13.46;101657.94;115048;57;10003497;-75
2021/12/24 11:41:42;;;;;;;;;;;;;;;27.05;14.45;101669.38;124152;57;10003469;-73
2021/12/24 11:44:09;;;;;;;;;;;;;;;26.38;14.72;101662.31;143761;929;46000;-71
2021/12/24 11:46:37;;;;;;;;;;;;;;;25.72;15.94;101655.91;143761;978;46002;-71
2021/12/24 11:49:03;;;;;;;;;;;;;;;25.36;15.53;101654.00;143762;983;45934;-72
2021/12/24 11:51:30;;;;;;;;;;;;;;;25.37;15.89;101654.84;143762;982;46000;-73
2021/12/24 11:54:04;;;;;;;;;;;;;;;25.33;16.21;101651.78;143763;986;45010;-75
2021/12/24 11:56:39;;;;;;;;;;;;;;;25.27;16.51;101650.97;143761;978;46002;-73
2021/12/24 11:59:05;;;;;;;;;;;;;;;25.34;17.54;101647.13;143739;985;46933;-74
2021/12/24 12:01:37;;;;;;;;;;;;;;;25.22;17.61;101637.25;143742;982;47000;-76
2021/12/24 12:04:10;;;;;;;;;;;;;;;24.98;17.68;101637.78;143739;975;46931;-74
2021/12/24 12:06:36;;;;;;;;;;;;;;;24.67;18.27;101625.91;143738;977;47002;-77
2021/12/24 12:09:07;;;;;;;;;;;;;;;24.47;18.95;101622.00;143741;981;46019;-72
2021/12/24 12:11:35;;;;;;;;;;;;;;;24.18;18.79;101617.00;143741;982;47000;-74
2021/12/24 12:14:03;;;;;;;;;;;;;;;23.87;18.86;101610.50;143739;985;47010;-74
2021/12/24 12:16:47;;;;;;;;;;;;;;;23.80;18.70;101607.19;143742;978;46002;-74
2021/12/24 12:19:29;;;;;;;;;;;;;;;23.40;19.43;101603.91;143740;985;46009;-71
2021/12/24 12:22:20;;;;;;;;;;;;;;;22.54;20.21;101610.03;143741;982;47000;-71
2021/12/24 12:24:59;;;;;;;;;;;;;;;22.15;20.60;101607.38;143740;986;46010;-70
2021/12/24 12:27:51;;;;;;;;;;;;;;;21.36;21.97;101593.69;143737;977;47002;-70
2021/12/24 12:30:39;;;;;;;;;;;;;;;20.58;23.11;101591.53;143740;986;46008;-71
2021/12/24 12:33:18;;;;;;;;;;;;;;;20.10;23.06;101587.34;143743;982;47000;-70
2021/12/24 12:35:51;;;;;;;;;;;;;;;19.75;24.14;101583.59;143738;985;47010;-72
2021/12/24 12:38:45;;;;;;;;;;;;;;;19.41;24.23;101582.53;143740;978;47002;-70
2021/12/24 12:41:21;;;;;;;;;;;;;;;19.60;23.91;101580.50;143742;985;46008;-70
2021/12/24 12:43:47;;;;;;;;;;;;;;;20.00;23.13;101590.69;143741;982;46012;-70
2021/12/24 12:46:30;;;;;;;;;;;;;;;20.26;23.38;101594.75;143740;985;46010;-71
2021/12/24 12:48:57;;;;;;;;;;;;;;;20.23;23.18;101584.31;143738;978;47002;-72
2021/12/24 12:51:42;;;;;;;;;;;;;;;19.97;23.37;101583.81;143740;985;46008;-70
2021/12/24 12:54:31;;;;;;;;;;;;;;;19.68;24.33;101580.16;143742;982;47000;-70
2021/12/24 12:57:17;;;;;;;;;;;;;;;19.39;25.54;101575.44;143738;985;46011;-70
2021/12/24 13:00:01;;;;;;;;;;;;;;;19.21;25.61;101579.09;143738;978;47002;-70
2021/12/24 13:02:45;;;;;;;;;;;;;;;19.00;25.54;101574.22;143740;986;47000;-69
2021/12/24 13:05:14;;;;;;;;;;;;;;;18.84;25.78;101576.53;143743;979;47000;-70
2021/12/24 13:07:40;;;;;;;;;;;;;;;18.76;25.81;101579.56;143739;977;47010;-70
2021/12/24 13:10:06;;;;;;;;;;;;;;;18.63;26.67;101567.81;143739;978;47002;-70
2021/12/24 13:12:32;;;;;;;;;;;;;;;18.58;26.62;101584.00;143739;986;46008;-70
2021/12/24 13:15:01;;;;;;;;;;;;;;;18.51;26.01;101579.72;143742;982;47000;-71
2021/12/24 13:17:33;;;;;;;;;;;;;;;18.29;26.45;101581.06;143739;985;46011;-70
2021/12/24 13:20:12;;;;;;;;;;;;;;;18.25;26.94;101570.88;143740;977;47002;-70
2021/12/24 13:22:38;;;;;;;;;;;;;;;18.20;27.29;101570.72;143740;986;46008;-70
2021/12/24 13:25:13;;;;;;;;;;;;;;;18.11;27.91;101570.22;143742;982;46013;-70
2021/12/24 13:27:44;;;;;;;;;;;;;;;17.94;28.65;101575.38;143743;974;46010;-70
2021/12/24 13:30:18;;;;;;;;;;;;;;;17.83;28.80;101577.81;143737;978;47002;-71
2021/12/24 13:32:45;;;;;;;;;;;;;;;17.71;28.81;101574.19;143741;986;46009;-70
2021/12/24 13:35:12;;;;;;;;;;;;;;;17.61;29.15;101577.44;143742;977;46023;-71
2021/12/24 13:37:38;;;;;;;;;;;;;;;17.54;29.17;101576.66;143738;986;47010;-71
2021/12/24 13:40:09;;;;;;;;;;;;;;;17.51;29.50;101574.38;143737;978;47003;-70
2021/12/24 13:42:51;;;;;;;;;;;;;;;17.37;29.62;101584.56;143736;985;46933;-70
2021/12/24 13:45:19;;;;;;;;;;;;;;;17.22;30.45;101579.47;143735;982;46008;-70
2021/12/24 13:56:42;;;;;;;;;;;;;;;16.65;32.14;101577.53;143735;985;46008;-69
2021/12/24 13:59:09;;;;;;;;;;;;;;;16.52;32.36;101576.56;143730;982;47010;-69
2021/12/24 14:01:35;;;;;;;;;;;;;;;16.41;31.89;101579.97;143732;982;46010;-71
2021/12/24 14:04:02;;;;;;;;;;;;;;;16.25;32.37;101586.72;143731;983;46938;-71
2021/12/24 14:06:35;;;;;;;;;;;;;;;16.11;32.54;101577.81;143736;986;46008;-72
2021/12/24 14:09:08;;;;;;;;;;;;;;;16.03;32.78;101575.34;143733;982;46010;-69
2021/12/24 14:11:36;;;;;;;;;;;;;;;15.97;33.11;101577.03;143733;981;47002;-70
2021/12/24 14:14:06;;;;;;;;;;;;;;;15.91;33.36;101589.53;143735;984;46008;-70
2021/12/24 14:19:19;;;;;;;;;;;;;;;15.59;34.32;101591.25;143732;985;47006;-70
2021/12/24 14:21:50;;;;;;;;;;;;;;;15.39;34.51;101583.16;143731;978;47002;-70
2021/12/24 14:24:41;;;;;;;;;;;;;;;15.40;34.28;101582.94;143733;984;46934;-70
2021/12/24 14:27:09;;;;;;;;;;;;;;;15.42;35.03;101590.84;143734;981;47000;-70
2021/12/24 14:29:39;;;;;;;;;;;;;;;15.38;34.99;101595.00;143733;986;46010;-70
2021/12/24 14:32:16;;;;;;;;;;;;;;;15.34;34.61;101594.59;143732;978;47002;-69
2021/12/24 14:34:52;;;;;;;;;;;;;;;15.29;34.53;101584.41;143735;976;46008;-69
2021/12/24 14:37:34;;;;;;;;;;;;;;;15.20;35.06;101587.53;143733;982;47000;-70